Time;durP1;ratioP1;P1;durP2;ratioP2;P2;SDS_P1;SDS_P2;PMS_P1;PMS_P2;Temp;Humidity;BMP_temperature;BMP_pressure;BME280_temperature;BME280_humidity;BME280_pressure;Samples;Min_cycle;Max_cycle;Signal;HPM_P1;HPM_P2
2024/02/22 00:01:01;;;;;;;;;;;;;;;-144.99;100.00;67352.69;5088929;28;19912;-80
2024/02/22 00:03:26;;;;;;;;;;;;;;;-144.99;100.00;67352.69;5095227;28;19923;-80
2024/02/22 00:05:52;;;;;;;;;;;;;;;-144.99;100.00;67352.69;5095205;28;19920;-80
2024/02/22 00:08:17;;;;;;;;;;;;;;;-144.99;100.00;67352.69;5094389;28;20298;-80
2024/02/22 00:10:42;;;;;;;;;;;;;;;-144.99;100.00;67352.69;5094704;28;19913;-80
2024/02/22 00:13:07;;;;;;;;;;;;;;;-144.99;100.00;67352.69;5093815;28;20393;-80
2024/02/22 00:15:33;;;;;;;;;;;;;;;-144.99;100.00;67352.69;5092560;28;19926;-80
2024/02/22 00:17:58;;;;;;;;;;;;;;;-144.99;100.00;67352.69;5092356;28;20394;-80
2024/02/22 00:20:23;;;;;;;;;;;;;;;-144.99;100.00;67352.69;5083354;28;19917;-80
2024/02/22 00:22:48;;;;;;;;;;;;;;;-144.99;100.00;67352.69;5081093;28;19920;-80
2024/02/22 00:25:15;;;;;;;;;;;;;;;-144.99;100.00;67352.69;5085043;28;20395;-81
2024/02/22 00:27:40;;;;;;;;;;;;;;;-144.99;100.00;67352.69;5091100;28;19912;-80
2024/02/22 00:30:09;;;;;;;;;;;;;;;-144.99;100.00;67352.69;5091674;28;19965;-79
2024/02/22 00:32:34;;;;;;;;;;;;;;;-144.99;100.00;67352.69;5095480;28;20139;-80
2024/02/22 00:34:59;;;;;;;;;;;;;;;-144.99;100.00;67352.69;5089790;28;19922;-80
2024/02/22 00:37:25;;;;;;;;;;;;;;;-144.99;100.00;67352.69;5087300;28;20027;-80
2024/02/22 00:39:51;;;;;;;;;;;;;;;-144.99;100.00;67352.69;5096284;28;19923;-79
2024/02/22 00:42:16;;;;;;;;;;;;;;;-144.99;100.00;67352.69;5095362;28;20282;-80
2024/02/22 00:44:41;;;;;;;;;;;;;;;-144.99;100.00;67352.69;5096185;28;19920;-80
2024/02/22 00:47:07;;;;;;;;;;;;;;;-144.99;100.00;67352.69;5094328;28;19973;-80
2024/02/22 00:49:32;;;;;;;;;;;;;;;-144.99;100.00;67352.69;5095945;28;19916;-80
2024/02/22 00:51:57;;;;;;;;;;;;;;;-144.99;100.00;67352.69;5096557;28;19912;-79
2024/02/22 00:54:22;;;;;;;;;;;;;;;-144.99;100.00;67352.69;5095686;28;19976;-80
2024/02/22 00:56:47;;;;;;;;;;;;;;;-144.99;100.00;67352.69;5091178;28;20015;-80
2024/02/22 00:59:13;;;;;;;;;;;;;;;-144.99;100.00;67352.69;5089179;28;19919;-81
2024/02/22 01:01:38;;;;;;;;;;;;;;;-144.99;100.00;67352.69;5096831;28;19913;-80
2024/02/22 01:04:03;;;;;;;;;;;;;;;-144.99;100.00;67352.69;5098679;28;20385;-81
2024/02/22 01:06:28;;;;;;;;;;;;;;;-144.99;100.00;67352.69;5096178;28;19951;-81
2024/02/22 01:08:54;;;;;;;;;;;;;;;-144.99;100.00;67352.69;5099083;28;19938;-80
2024/02/22 01:11:19;;;;;;;;;;;;;;;-144.99;100.00;67352.69;5098328;28;19934;-81
2024/02/22 01:13:48;;;;;;;;;;;;;;;-144.99;100.00;67352.69;5096566;28;19919;-81
2024/02/22 01:16:15;;;;;;;;;;;;;;;-144.99;100.00;67352.69;5096204;28;19912;-80
2024/02/22 01:18:41;;;;;;;;;;;;;;;-144.99;100.00;67352.69;5097900;28;19916;-81
2024/02/22 01:21:06;;;;;;;;;;;;;;;-144.99;100.00;67352.69;5088720;28;19957;-81
2024/02/22 01:23:31;;;;;;;;;;;;;;;-144.99;100.00;67352.69;5093384;28;20378;-81
2024/02/22 01:25:58;;;;;;;;;;;;;;;-144.99;100.00;67352.69;5097368;28;19916;-81
2024/02/22 01:28:23;;;;;;;;;;;;;;;-144.99;100.00;67352.69;5095738;28;19912;-81
2024/02/22 01:30:48;;;;;;;;;;;;;;;-144.99;100.00;67352.69;5097970;28;19916;-81
2024/02/22 01:33:13;;;;;;;;;;;;;;;-144.99;100.00;67352.69;5098936;28;19994;-81
2024/02/22 01:35:39;;;;;;;;;;;;;;;-144.99;100.00;67352.69;5098056;28;20279;-81
2024/02/22 01:38:04;;;;;;;;;;;;;;;-144.99;100.00;67352.69;5095958;28;19912;-81
2024/02/22 01:40:29;;;;;;;;;;;;;;;-144.99;100.00;67352.69;5098999;28;19916;-81
2024/02/22 01:42:55;;;;;;;;;;;;;;;-144.99;100.00;67352.69;5097482;28;20011;-81
2024/02/22 01:45:21;;;;;;;;;;;;;;;-144.99;100.00;67352.69;5096188;28;19916;-81
2024/02/22 01:47:46;;;;;;;;;;;;;;;-144.99;100.00;67352.69;5095561;28;19998;-81
2024/02/22 01:50:11;;;;;;;;;;;;;;;-144.99;100.00;67352.69;5099971;28;19945;-82
2024/02/22 01:52:36;;;;;;;;;;;;;;;-144.99;100.00;67352.69;5096582;28;19913;-81
2024/02/22 01:55:06;;;;;;;;;;;;;;;-144.99;100.00;67352.69;5095333;28;19918;-80
2024/02/22 01:57:31;;;;;;;;;;;;;;;-144.99;100.00;67352.69;5092539;28;19920;-80
2024/02/22 01:59:56;;;;;;;;;;;;;;;-144.99;100.00;67352.69;5095391;28;20275;-80
2024/02/22 02:02:22;;;;;;;;;;;;;;;-144.99;100.00;67352.69;5093674;28;19924;-81
2024/02/22 02:04:47;;;;;;;;;;;;;;;-144.99;100.00;67352.69;5094610;28;19912;-81
2024/02/22 02:07:12;;;;;;;;;;;;;;;-144.99;100.00;67352.69;5093027;28;19919;-81
2024/02/22 02:09:37;;;;;;;;;;;;;;;-144.99;100.00;67352.69;5095750;28;20393;-81
2024/02/22 02:12:03;;;;;;;;;;;;;;;-144.99;100.00;67352.69;5094140;28;19913;-81
2024/02/22 02:14:28;;;;;;;;;;;;;;;-144.99;100.00;67352.69;5095929;28;20287;-81
2024/02/22 02:16:53;;;;;;;;;;;;;;;-144.99;100.00;67352.69;5094110;28;19916;-82
2024/02/22 02:19:19;;;;;;;;;;;;;;;-144.99;100.00;67352.69;5096536;28;19919;-81
2024/02/22 02:22:07;;;;;;;;;;;;;;;-144.99;100.00;67352.69;5095842;28;19966;-81
2024/02/22 02:24:37;;;;;;;;;;;;;;;-144.99;100.00;67352.69;5095881;28;19925;-81
2024/02/22 02:27:03;;;;;;;;;;;;;;;-144.99;100.00;67352.69;5095219;28;19970;-82
2024/02/22 02:29:28;;;;;;;;;;;;;;;-144.99;100.00;67352.69;5096507;28;19912;-82
2024/02/22 02:31:53;;;;;;;;;;;;;;;-144.99;100.00;67352.69;5087746;28;20378;-82
2024/02/22 02:34:18;;;;;;;;;;;;;;;-144.99;100.00;67352.69;5096466;28;19999;-81
2024/02/22 02:36:44;;;;;;;;;;;;;;;-144.99;100.00;67352.69;5096042;28;19916;-82
2024/02/22 02:39:09;;;;;;;;;;;;;;;-144.99;100.00;67352.69;5096855;28;19935;-81
2024/02/22 02:41:34;;;;;;;;;;;;;;;-144.99;100.00;67352.69;5095269;28;19912;-82
2024/02/22 02:44:00;;;;;;;;;;;;;;;-144.99;100.00;67352.69;5096399;28;19912;-81
2024/02/22 02:46:25;;;;;;;;;;;;;;;-144.99;100.00;67352.69;5086406;28;20305;-81
2024/02/22 02:48:50;;;;;;;;;;;;;;;-144.99;100.00;67352.69;5095731;28;20398;-81
2024/02/22 02:51:15;;;;;;;;;;;;;;;-144.99;100.00;67352.69;5080302;28;20396;-80
2024/02/22 02:53:42;;;;;;;;;;;;;;;-144.99;100.00;67352.69;5092247;28;19969;-82
2024/02/22 02:56:07;;;;;;;;;;;;;;;-144.99;100.00;67352.69;5097299;28;19916;-82
2024/02/22 02:58:32;;;;;;;;;;;;;;;-144.99;100.00;67352.69;5095373;28;20446;-82
2024/02/22 03:00:58;;;;;;;;;;;;;;;-144.99;100.00;67352.69;5096051;28;19959;-82
2024/02/22 03:03:23;;;;;;;;;;;;;;;-144.99;100.00;67352.69;5097074;28;19920;-82
2024/02/22 03:05:48;;;;;;;;;;;;;;;-144.99;100.00;67352.69;5096316;28;20298;-81
2024/02/22 03:08:13;;;;;;;;;;;;;;;-144.99;100.00;67352.69;5090833;28;19920;-83
2024/02/22 03:10:38;;;;;;;;;;;;;;;-144.99;100.00;67352.69;5095933;28;19961;-81
2024/02/22 03:13:07;;;;;;;;;;;;;;;-144.99;100.00;67352.69;5096772;28;19927;-81
2024/02/22 03:15:35;;;;;;;;;;;;;;;-144.99;100.00;67352.69;5087383;28;20298;-82
2024/02/22 03:18:01;;;;;;;;;;;;;;;-144.99;100.00;67352.69;5089814;28;19916;-81
2024/02/22 03:20:26;;;;;;;;;;;;;;;-144.99;100.00;67352.69;5095773;28;20552;-82
2024/02/22 03:22:51;;;;;;;;;;;;;;;-144.99;100.00;67352.69;5095994;28;19912;-81
2024/02/22 03:25:16;;;;;;;;;;;;;;;-144.99;100.00;67352.69;5097244;28;19916;-82
2024/02/22 03:27:43;;;;;;;;;;;;;;;-144.99;100.00;67352.69;5096344;28;20306;-81
2024/02/22 03:30:09;;;;;;;;;;;;;;;-144.99;100.00;67352.69;5096150;28;20398;-81
2024/02/22 03:32:36;;;;;;;;;;;;;;;-144.99;100.00;67352.69;5090669;28;19916;-82
2024/02/22 03:35:01;;;;;;;;;;;;;;;-144.99;100.00;67352.69;5094920;28;20310;-81
2024/02/22 03:37:27;;;;;;;;;;;;;;;-144.99;100.00;67352.69;5096416;28;19991;-82
2024/02/22 03:39:52;;;;;;;;;;;;;;;-144.99;100.00;67352.69;5097358;28;19919;-82
2024/02/22 03:42:18;;;;;;;;;;;;;;;-144.99;100.00;67352.69;5092701;28;20375;-81
2024/02/22 03:44:43;;;;;;;;;;;;;;;-144.99;100.00;67352.69;5090345;28;20002;-81
2024/02/22 03:47:09;;;;;;;;;;;;;;;-144.99;100.00;67352.69;5089603;28;19997;-81
2024/02/22 03:49:34;;;;;;;;;;;;;;;-144.99;100.00;67352.69;5092278;28;20359;-81
2024/02/22 03:51:59;;;;;;;;;;;;;;;-144.99;100.00;67352.69;5090486;28;19912;-81
2024/02/22 03:54:25;;;;;;;;;;;;;;;-144.99;100.00;67352.69;5090740;28;20026;-81
2024/02/22 03:56:51;;;;;;;;;;;;;;;-144.99;100.00;67352.69;5090874;28;19912;-81
2024/02/22 03:59:16;;;;;;;;;;;;;;;-144.99;100.00;67352.69;5092178;28;19918;-81
2024/02/22 04:01:41;;;;;;;;;;;;;;;-144.99;100.00;67352.69;5091374;28;19912;-81
2024/02/22 04:04:07;;;;;;;;;;;;;;;-144.99;100.00;67352.69;5099121;28;19916;-82
2024/02/22 04:06:32;;;;;;;;;;;;;;;-144.99;100.00;67352.69;5098976;28;19923;-82
2024/02/22 04:08:58;;;;;;;;;;;;;;;-144.99;100.00;67352.69;5100970;28;19912;-81
2024/02/22 04:11:23;;;;;;;;;;;;;;;-144.99;100.00;67352.69;5102404;28;19912;-81
2024/02/22 04:13:49;;;;;;;;;;;;;;;-144.99;100.00;67352.69;5098482;28;19919;-81
2024/02/22 04:16:14;;;;;;;;;;;;;;;-144.99;100.00;67352.69;5099650;28;19912;-82
2024/02/22 04:18:39;;;;;;;;;;;;;;;-144.99;100.00;67352.69;5097884;28;19919;-81
2024/02/22 04:21:04;;;;;;;;;;;;;;;-144.99;100.00;67352.69;5099120;28;20426;-82
2024/02/22 04:23:29;;;;;;;;;;;;;;;-144.99;100.00;67352.69;5097065;28;19947;-81
2024/02/22 04:25:55;;;;;;;;;;;;;;;-144.99;100.00;67352.69;5097521;28;19916;-82
2024/02/22 04:28:20;;;;;;;;;;;;;;;-144.99;100.00;67352.69;5089916;28;20395;-81
2024/02/22 04:30:46;;;;;;;;;;;;;;;-144.99;100.00;67352.69;5098123;28;19942;-81
2024/02/22 04:33:12;;;;;;;;;;;;;;;-144.99;100.00;67352.69;5098971;28;19924;-82
2024/02/22 04:35:38;;;;;;;;;;;;;;;-144.99;100.00;67352.69;5098413;28;20371;-81
2024/02/22 04:38:03;;;;;;;;;;;;;;;-144.99;100.00;67352.69;5099311;28;20367;-82
2024/02/22 04:40:29;;;;;;;;;;;;;;;-144.99;100.00;67352.69;5098295;28;19920;-83
2024/02/22 04:42:56;;;;;;;;;;;;;;;-144.99;100.00;67352.69;5098821;28;19912;-81
2024/02/22 04:45:21;;;;;;;;;;;;;;;-144.99;100.00;67352.69;5097639;28;19920;-81
2024/02/22 04:47:48;;;;;;;;;;;;;;;-144.99;100.00;67352.69;5095082;28;19919;-81
2024/02/22 04:50:14;;;;;;;;;;;;;;;-144.99;100.00;67352.69;5095784;28;19935;-81
2024/02/22 04:52:39;;;;;;;;;;;;;;;-144.99;100.00;67352.69;5095614;28;20374;-81
2024/02/22 04:55:04;;;;;;;;;;;;;;;-144.99;100.00;67352.69;5094080;28;19912;-82
2024/02/22 04:57:30;;;;;;;;;;;;;;;-144.99;100.00;67352.69;5094762;28;20448;-81
2024/02/22 04:59:55;;;;;;;;;;;;;;;-144.99;100.00;67352.69;5094274;28;19957;-81
2024/02/22 05:02:21;;;;;;;;;;;;;;;-144.99;100.00;67352.69;5095180;28;19916;-81
2024/02/22 05:04:46;;;;;;;;;;;;;;;-144.99;100.00;67352.69;5095835;28;19919;-81
2024/02/22 05:07:11;;;;;;;;;;;;;;;-144.99;100.00;67352.69;5092829;28;20301;-81
2024/02/22 05:09:36;;;;;;;;;;;;;;;-144.99;100.00;67352.69;5095232;28;19920;-81
2024/02/22 05:12:02;;;;;;;;;;;;;;;-144.99;100.00;67352.69;5094900;28;19912;-81
2024/02/22 05:14:27;;;;;;;;;;;;;;;-144.99;100.00;67352.69;5093479;28;19919;-81
2024/02/22 05:16:52;;;;;;;;;;;;;;;-144.99;100.00;67352.69;5091669;28;19912;-81
2024/02/22 05:19:17;;;;;;;;;;;;;;;-144.99;100.00;67352.69;5094693;28;19919;-82
2024/02/22 05:21:42;;;;;;;;;;;;;;;-144.99;100.00;67352.69;5082968;28;19922;-81
2024/02/22 05:24:10;;;;;;;;;;;;;;;-144.99;100.00;67352.69;5093910;28;19916;-81
2024/02/22 05:26:36;;;;;;;;;;;;;;;-144.99;100.00;67352.69;5093898;28;19916;-81
2024/02/22 05:29:01;;;;;;;;;;;;;;;-144.99;100.00;67352.69;5093501;28;20015;-82
2024/02/22 05:31:29;;;;;;;;;;;;;;;-144.99;100.00;67352.69;5092435;28;19964;-82
2024/02/22 05:33:54;;;;;;;;;;;;;;;-144.99;100.00;67352.69;5093012;28;19919;-82
2024/02/22 05:36:23;;;;;;;;;;;;;;;-144.99;100.00;67352.69;5093085;28;19912;-81
2024/02/22 05:38:48;;;;;;;;;;;;;;;-144.99;100.00;67352.69;5085193;28;19918;-81
2024/02/22 05:41:13;;;;;;;;;;;;;;;-144.99;100.00;67352.69;5092914;28;19912;-81
2024/02/22 05:43:39;;;;;;;;;;;;;;;-144.99;100.00;67352.69;5092873;28;20282;-81
2024/02/22 05:46:04;;;;;;;;;;;;;;;-144.99;100.00;67352.69;5092744;28;20405;-81
2024/02/22 05:48:29;;;;;;;;;;;;;;;-144.99;100.00;67352.69;5074739;28;19920;-81
2024/02/22 05:50:55;;;;;;;;;;;;;;;-144.99;100.00;67352.69;5081170;28;20384;-82
2024/02/22 05:53:21;;;;;;;;;;;;;;;-144.99;100.00;67352.69;5092863;28;20003;-82
2024/02/22 05:55:46;;;;;;;;;;;;;;;-144.99;100.00;67352.69;5092368;28;19912;-81
2024/02/22 05:58:12;;;;;;;;;;;;;;;-144.99;100.00;67352.69;5091717;28;19912;-81
2024/02/22 06:00:37;;;;;;;;;;;;;;;-144.99;100.00;67352.69;5092433;28;19912;-81
2024/02/22 06:03:04;;;;;;;;;;;;;;;-144.99;100.00;67352.69;5092629;28;19916;-81
2024/02/22 06:05:29;;;;;;;;;;;;;;;-144.99;100.00;67352.69;5093150;28;19916;-81
2024/02/22 06:07:54;;;;;;;;;;;;;;;-144.99;100.00;67352.69;5092829;28;19993;-81
2024/02/22 06:10:20;;;;;;;;;;;;;;;-144.99;100.00;67352.69;5085928;28;19913;-81
2024/02/22 06:12:45;;;;;;;;;;;;;;;-144.99;100.00;67352.69;5072943;28;19919;-81
2024/02/22 06:15:10;;;;;;;;;;;;;;;-144.99;100.00;67352.69;5084498;28;20416;-82
2024/02/22 06:17:35;;;;;;;;;;;;;;;-144.99;100.00;67352.69;5093162;28;19912;-82
2024/02/22 06:20:02;;;;;;;;;;;;;;;-144.99;100.00;67352.69;5092155;28;19947;-81
2024/02/22 06:22:28;;;;;;;;;;;;;;;-144.99;100.00;67352.69;5093519;28;20080;-81
2024/02/22 06:24:53;;;;;;;;;;;;;;;-144.99;100.00;67352.69;5093121;28;20064;-81
2024/02/22 06:27:18;;;;;;;;;;;;;;;-144.99;100.00;67352.69;5092539;28;19912;-81
2024/02/22 06:29:44;;;;;;;;;;;;;;;-144.99;100.00;67352.69;5092993;28;19912;-81
2024/02/22 06:32:09;;;;;;;;;;;;;;;-144.99;100.00;67352.69;5093067;28;19916;-82
2024/02/22 06:34:34;;;;;;;;;;;;;;;-144.99;100.00;67352.69;5093063;28;19999;-81
2024/02/22 06:36:59;;;;;;;;;;;;;;;-144.99;100.00;67352.69;5092083;28;19912;-81
2024/02/22 06:39:27;;;;;;;;;;;;;;;-144.99;100.00;67352.69;5091913;28;19912;-81
2024/02/22 06:41:53;;;;;;;;;;;;;;;-144.99;100.00;67352.69;5092805;28;19919;-81
2024/02/22 06:44:18;;;;;;;;;;;;;;;-144.99;100.00;67352.69;5091720;28;20370;-81
2024/02/22 06:46:43;;;;;;;;;;;;;;;-144.99;100.00;67352.69;5090575;28;19954;-81
2024/02/22 06:49:08;;;;;;;;;;;;;;;-144.99;100.00;67352.69;5092896;28;19912;-81
2024/02/22 06:51:34;;;;;;;;;;;;;;;-144.99;100.00;67352.69;5092687;28;19912;-81
2024/02/22 06:53:59;;;;;;;;;;;;;;;-144.99;100.00;67352.69;5079237;28;19917;-81
2024/02/22 06:56:24;;;;;;;;;;;;;;;-144.99;100.00;67352.69;5078073;28;20374;-81
2024/02/22 06:58:49;;;;;;;;;;;;;;;-144.99;100.00;67352.69;5091935;28;19916;-81
2024/02/22 07:01:14;;;;;;;;;;;;;;;-144.99;100.00;67352.69;5079754;28;20004;-81
2024/02/22 07:03:40;;;;;;;;;;;;;;;-144.99;100.00;67352.69;5079808;28;19916;-81
2024/02/22 07:06:07;;;;;;;;;;;;;;;-144.99;100.00;67352.69;5082065;28;20115;-82
2024/02/22 07:08:32;;;;;;;;;;;;;;;-144.99;100.00;67352.69;5078313;28;20421;-81
2024/02/22 07:10:57;;;;;;;;;;;;;;;-144.99;100.00;67352.69;5091063;28;20393;-81
2024/02/22 07:13:22;;;;;;;;;;;;;;;-144.99;100.00;67352.69;5092472;28;19912;-82
2024/02/22 07:15:47;;;;;;;;;;;;;;;-144.99;100.00;67352.69;5091425;28;19942;-82
2024/02/22 07:18:13;;;;;;;;;;;;;;;-144.99;100.00;67352.69;5090460;28;19919;-81
2024/02/22 07:20:38;;;;;;;;;;;;;;;-144.99;100.00;67352.69;5091895;28;19919;-81
2024/02/22 07:23:04;;;;;;;;;;;;;;;-144.99;100.00;67352.69;5091373;28;20186;-82
2024/02/22 07:25:29;;;;;;;;;;;;;;;-144.99;100.00;67352.69;5092137;28;20302;-82
2024/02/22 07:27:55;;;;;;;;;;;;;;;-144.99;100.00;67352.69;5092237;28;19912;-82
2024/02/22 07:30:20;;;;;;;;;;;;;;;-144.99;100.00;67352.69;5091198;28;20296;-81
2024/02/22 07:32:46;;;;;;;;;;;;;;;-144.99;100.00;67352.69;5094288;28;20299;-81
2024/02/22 07:35:13;;;;;;;;;;;;;;;-144.99;100.00;67352.69;5092098;28;19920;-82
2024/02/22 07:37:39;;;;;;;;;;;;;;;-144.99;100.00;67352.69;5093539;28;19912;-82
2024/02/22 07:40:05;;;;;;;;;;;;;;;-144.99;100.00;67352.69;5090049;28;20007;-81
2024/02/22 07:42:32;;;;;;;;;;;;;;;-144.99;100.00;67352.69;5071858;28;19956;-81
2024/02/22 07:44:58;;;;;;;;;;;;;;;-144.99;100.00;67352.69;5072592;28;19999;-82
2024/02/22 07:47:23;;;;;;;;;;;;;;;-144.99;100.00;67352.69;5084741;28;19991;-82
2024/02/22 07:49:48;;;;;;;;;;;;;;;-144.99;100.00;67352.69;5091886;28;20487;-80
2024/02/22 07:52:13;;;;;;;;;;;;;;;-144.99;100.00;67352.69;5084265;28;19916;-82
2024/02/22 07:54:40;;;;;;;;;;;;;;;-144.99;100.00;67352.69;5077045;28;19912;-81
2024/02/22 07:57:06;;;;;;;;;;;;;;;-144.99;100.00;67352.69;5080200;28;20398;-82
2024/02/22 07:59:31;;;;;;;;;;;;;;;-144.99;100.00;67352.69;5080253;28;19916;-82
2024/02/22 08:01:56;;;;;;;;;;;;;;;-144.99;100.00;67352.69;5093300;28;19919;-81
2024/02/22 08:04:23;;;;;;;;;;;;;;;-144.99;100.00;67352.69;5091735;28;19927;-82
2024/02/22 08:06:49;;;;;;;;;;;;;;;-144.99;100.00;67352.69;5089570;28;20302;-81
2024/02/22 08:09:14;;;;;;;;;;;;;;;-144.99;100.00;67352.69;5091859;28;19912;-81
2024/02/22 08:11:39;;;;;;;;;;;;;;;-144.99;100.00;67352.69;5065388;28;20010;-82
2024/02/22 08:14:04;;;;;;;;;;;;;;;-144.99;100.00;67352.69;5066862;28;19916;-82
2024/02/22 08:16:29;;;;;;;;;;;;;;;-144.99;100.00;67352.69;5072815;28;19919;-81
2024/02/22 08:18:55;;;;;;;;;;;;;;;-144.99;100.00;67352.69;5088220;28;19918;-82
2024/02/22 08:21:20;;;;;;;;;;;;;;;-144.99;100.00;67352.69;5090395;28;20007;-81
2024/02/22 08:23:45;;;;;;;;;;;;;;;-144.99;100.00;67352.69;5085621;28;20295;-81
2024/02/22 08:26:11;;;;;;;;;;;;;;;-144.99;100.00;67352.69;5076879;28;19931;-81
2024/02/22 08:28:36;;;;;;;;;;;;;;;-144.99;100.00;67352.69;5090025;28;19919;-81
2024/02/22 08:31:01;;;;;;;;;;;;;;;-144.99;100.00;67352.69;5091730;28;19912;-81
2024/02/22 08:33:28;;;;;;;;;;;;;;;-144.99;100.00;67352.69;5091285;28;19951;-81
2024/02/22 08:35:56;;;;;;;;;;;;;;;-144.99;100.00;67352.69;5090346;28;19920;-81
2024/02/22 08:38:21;;;;;;;;;;;;;;;-144.99;100.00;67352.69;5089644;28;19916;-81
2024/02/22 08:40:47;;;;;;;;;;;;;;;-144.99;100.00;67352.69;5091556;28;19912;-81
2024/02/22 08:43:12;;;;;;;;;;;;;;;-144.99;100.00;67352.69;5091637;28;20005;-82
2024/02/22 08:45:37;;;;;;;;;;;;;;;-144.99;100.00;67352.69;5071537;28;19921;-80
2024/02/22 08:48:03;;;;;;;;;;;;;;;-144.99;100.00;67352.69;5064942;28;19913;-81
2024/02/22 08:50:29;;;;;;;;;;;;;;;-144.99;100.00;67352.69;5057810;28;19920;-82
2024/02/22 08:52:54;;;;;;;;;;;;;;;-144.99;100.00;67352.69;5070663;28;19920;-81
2024/02/22 08:55:19;;;;;;;;;;;;;;;-144.99;100.00;67352.69;5080129;28;19977;-81
2024/02/22 08:57:44;;;;;;;;;;;;;;;-144.99;100.00;67352.69;5090163;28;19912;-81
2024/02/22 09:00:13;;;;;;;;;;;;;;;-144.99;100.00;67352.69;5089397;28;20337;-81
2024/02/22 09:02:38;;;;;;;;;;;;;;;-144.99;100.00;67352.69;5082465;28;19939;-82
2024/02/22 09:05:03;;;;;;;;;;;;;;;-144.99;100.00;67352.69;5086702;28;19912;-81
2024/02/22 09:07:30;;;;;;;;;;;;;;;-144.99;100.00;67352.69;5094157;28;19919;-81
2024/02/22 09:09:56;;;;;;;;;;;;;;;-144.99;100.00;67352.69;5093698;28;19912;-81
2024/02/22 09:12:21;;;;;;;;;;;;;;;-144.99;100.00;67352.69;5093249;28;19920;-81
2024/02/22 09:14:47;;;;;;;;;;;;;;;-144.99;100.00;67352.69;5093225;28;20022;-83
2024/02/22 09:17:12;;;;;;;;;;;;;;;-144.99;100.00;67352.69;5086175;28;19912;-81
2024/02/22 09:19:37;;;;;;;;;;;;;;;-144.99;100.00;67352.69;5078473;28;19965;-80
2024/02/22 09:22:03;;;;;;;;;;;;;;;-144.99;100.00;67352.69;5082443;28;19916;-81
2024/02/22 09:24:29;;;;;;;;;;;;;;;-144.99;100.00;67352.69;5087622;28;19934;-81
2024/02/22 09:26:55;;;;;;;;;;;;;;;-144.99;100.00;67352.69;5093442;28;20275;-80
2024/02/22 09:29:20;;;;;;;;;;;;;;;-144.99;100.00;67352.69;5093608;28;20286;-83
2024/02/22 09:31:46;;;;;;;;;;;;;;;-144.99;100.00;67352.69;5094651;28;19912;-82
2024/02/22 09:34:11;;;;;;;;;;;;;;;-144.99;100.00;67352.69;5092934;28;19920;-82
2024/02/22 09:36:36;;;;;;;;;;;;;;;-144.99;100.00;67352.69;5092229;28;20406;-83
2024/02/22 09:39:03;;;;;;;;;;;;;;;-144.99;100.00;67352.69;5094774;28;20305;-83
2024/02/22 09:41:28;;;;;;;;;;;;;;;-144.99;100.00;67352.69;5095015;28;19966;-82
2024/02/22 09:43:54;;;;;;;;;;;;;;;-144.99;100.00;67352.69;5093619;28;20352;-80
2024/02/22 09:46:19;;;;;;;;;;;;;;;-144.99;100.00;67352.69;5092777;28;20487;-80
2024/02/22 09:48:45;;;;;;;;;;;;;;;-144.99;100.00;67352.69;5093592;28;19956;-82
2024/02/22 09:51:12;;;;;;;;;;;;;;;-144.99;100.00;67352.69;5094044;28;20002;-80
2024/02/22 09:53:37;;;;;;;;;;;;;;;-144.99;100.00;67352.69;5092975;28;20306;-82
2024/02/22 09:56:02;;;;;;;;;;;;;;;-144.99;100.00;67352.69;5066000;28;19917;-81
2024/02/22 09:58:28;;;;;;;;;;;;;;;-144.99;100.00;67352.69;5078787;28;19916;-80
2024/02/22 10:00:54;;;;;;;;;;;;;;;-144.99;100.00;67352.69;5085119;28;19912;-80
2024/02/22 10:03:40;;;;;;;;;;;;;;;-144.99;100.00;67352.69;5091707;28;19923;-81
2024/02/22 10:06:15;;;;;;;;;;;;;;;-144.99;100.00;67352.69;5092283;28;20341;-80
2024/02/22 10:08:40;;;;;;;;;;;;;;;-144.99;100.00;67352.69;5093236;28;19919;-80
2024/02/22 10:11:06;;;;;;;;;;;;;;;-144.99;100.00;67352.69;5081224;28;20018;-81
2024/02/22 10:13:31;;;;;;;;;;;;;;;-144.99;100.00;67352.69;5093624;28;19916;-81
2024/02/22 10:15:57;;;;;;;;;;;;;;;-144.99;100.00;67352.69;5068916;28;19932;-81
2024/02/22 10:18:23;;;;;;;;;;;;;;;-144.99;100.00;67352.69;5065854;28;19925;-81
2024/02/22 10:20:49;;;;;;;;;;;;;;;-144.99;100.00;67352.69;5058233;28;20019;-81
2024/02/22 10:23:17;;;;;;;;;;;;;;;-144.99;100.00;67352.69;5078192;28;19912;-81
2024/02/22 10:25:42;;;;;;;;;;;;;;;-144.99;100.00;67352.69;5091981;28;19920;-81
2024/02/22 10:28:08;;;;;;;;;;;;;;;-144.99;100.00;67352.69;5092081;28;20014;-81
2024/02/22 10:30:33;;;;;;;;;;;;;;;-144.99;100.00;67352.69;5094601;28;20286;-81
2024/02/22 10:33:02;;;;;;;;;;;;;;;-144.99;100.00;67352.69;5093503;28;19912;-81
2024/02/22 10:35:28;;;;;;;;;;;;;;;-144.99;100.00;67352.69;5095005;28;19923;-81
2024/02/22 10:37:53;;;;;;;;;;;;;;;-144.99;100.00;67352.69;5097360;28;19912;-81
2024/02/22 10:40:19;;;;;;;;;;;;;;;-144.99;100.00;67352.69;5093436;28;19979;-81
2024/02/22 10:42:45;;;;;;;;;;;;;;;-144.99;100.00;67352.69;5094326;28;19912;-80
2024/02/22 10:45:10;;;;;;;;;;;;;;;-144.99;100.00;67352.69;5094477;28;19965;-81
2024/02/22 10:47:38;;;;;;;;;;;;;;;-144.99;100.00;67352.69;5085525;28;19919;-81
2024/02/22 10:50:04;;;;;;;;;;;;;;;-144.99;100.00;67352.69;5081275;28;20305;-82
2024/02/22 10:52:32;;;;;;;;;;;;;;;-144.99;100.00;67352.69;5082144;28;20429;-81
2024/02/22 10:54:58;;;;;;;;;;;;;;;-144.99;100.00;67352.69;5080171;28;19913;-81
2024/02/22 10:57:27;;;;;;;;;;;;;;;-144.99;100.00;67352.69;5081431;28;19972;-81
2024/02/22 10:59:54;;;;;;;;;;;;;;;-144.99;100.00;67352.69;5076005;28;19957;-82
2024/02/22 11:02:20;;;;;;;;;;;;;;;-144.99;100.00;67352.69;5082331;28;20356;-82
2024/02/22 11:04:45;;;;;;;;;;;;;;;-144.99;100.00;67352.69;5091520;28;19916;-82
2024/02/22 11:07:10;;;;;;;;;;;;;;;-144.99;100.00;67352.69;5085933;28;19943;-82
2024/02/22 11:09:41;;;;;;;;;;;;;;;-144.99;100.00;67352.69;5093324;28;19917;-82
2024/02/22 11:12:10;;;;;;;;;;;;;;;-144.99;100.00;67352.69;5096173;28;19977;-82
2024/02/22 11:14:37;;;;;;;;;;;;;;;-144.99;100.00;67352.69;5090722;28;19925;-82
2024/02/22 11:17:07;;;;;;;;;;;;;;;-144.99;100.00;67352.69;5083555;28;19920;-82
2024/02/22 11:19:32;;;;;;;;;;;;;;;-144.99;100.00;67352.69;5071205;28;19948;-82
2024/02/22 11:21:58;;;;;;;;;;;;;;;-144.99;100.00;67352.69;5065779;28;19924;-82
2024/02/22 11:24:24;;;;;;;;;;;;;;;-144.99;100.00;67352.69;5079239;28;19977;-82
2024/02/22 11:26:57;;;;;;;;;;;;;;;-144.99;100.00;67352.69;5076147;28;20003;-82
2024/02/22 11:29:29;;;;;;;;;;;;;;;-144.99;100.00;67352.69;5078223;28;19916;-84
2024/02/22 11:32:04;;;;;;;;;;;;;;;-144.99;100.00;67352.69;5090569;28;20267;-82
2024/02/22 11:34:30;;;;;;;;;;;;;;;-144.99;100.00;67352.69;5093252;28;19916;-83
2024/02/22 11:36:56;;;;;;;;;;;;;;;-144.99;100.00;67352.69;5092823;28;19935;-82
2024/02/22 11:39:21;;;;;;;;;;;;;;;-144.99;100.00;67352.69;5090178;28;20342;-81
2024/02/22 11:41:48;;;;;;;;;;;;;;;-144.99;100.00;67352.69;5092411;28;19964;-81
2024/02/22 11:44:15;;;;;;;;;;;;;;;-144.99;100.00;67352.69;5092884;28;19912;-81
2024/02/22 11:46:40;;;;;;;;;;;;;;;-144.99;100.00;67352.69;5089784;28;19917;-82
2024/02/22 11:49:06;;;;;;;;;;;;;;;-144.99;100.00;67352.69;5094122;28;19919;-82
2024/02/22 11:51:31;;;;;;;;;;;;;;;-144.99;100.00;67352.69;5095505;28;19916;-82
2024/02/22 11:53:57;;;;;;;;;;;;;;;-144.99;100.00;67352.69;5095614;28;19912;-82
2024/02/22 11:56:22;;;;;;;;;;;;;;;-144.99;100.00;67352.69;5080777;28;19917;-82
2024/02/22 11:58:47;;;;;;;;;;;;;;;-144.99;100.00;67352.69;5073331;28;19913;-81
2024/02/22 12:01:13;;;;;;;;;;;;;;;-144.99;100.00;67352.69;5085615;28;20301;-81
2024/02/22 12:03:39;;;;;;;;;;;;;;;-144.99;100.00;67352.69;5083593;28;19941;-82
2024/02/22 12:06:07;;;;;;;;;;;;;;;-144.99;100.00;67352.69;5090841;28;19917;-81
2024/02/22 12:08:33;;;;;;;;;;;;;;;-144.99;100.00;67352.69;5076961;28;19964;-81
2024/02/22 12:11:00;;;;;;;;;;;;;;;-144.99;100.00;67352.69;5077769;28;19912;-81